Time;durP1;ratioP1;P1;durP2;ratioP2;P2;SDS_P1;SDS_P2;PMS_P1;PMS_P2;Temp;Humidity;BMP_temperature;BMP_pressure;BME280_temperature;BME280_humidity;BME280_pressure;Samples;Min_cycle;Max_cycle;Signal;HPM_P1;HPM_P2
2022/09/16 00:01:33;;;;;;;11.05;8.52;;;14.10;84.70;;;12.94;100.00;95437.25;4964796;28;20522;-69
2022/09/16 00:03:59;;;;;;;10.18;8.15;;;14.20;84.80;;;12.98;100.00;95433.13;4981963;28;20507;-70
2022/09/16 00:06:27;;;;;;;9.10;7.85;;;14.30;84.80;;;13.03;100.00;95429.81;5026315;28;20093;-70
2022/09/16 00:08:58;;;;;;;13.60;7.78;;;14.40;84.60;;;13.06;100.00;95418.81;5049677;28;20457;-70
2022/09/16 00:11:23;;;;;;;8.95;6.97;;;14.40;84.50;;;13.09;100.00;95424.47;4953073;28;20108;-71
2022/09/16 00:13:49;;;;;;;9.23;7.30;;;14.50;84.40;;;13.13;100.00;95427.50;4947981;28;20062;-70
2022/09/16 00:16:23;;;;;;;10.75;7.20;;;14.60;84.30;;;13.20;100.00;95427.44;4984681;28;20062;-71
2022/09/16 00:18:56;;;;;;;8.73;6.93;;;14.60;84.20;;;13.22;100.00;95420.09;4993526;28;20032;-70
2022/09/16 00:21:23;;;;;;;9.20;7.43;;;14.60;84.10;;;13.25;100.00;95417.81;5028356;28;20048;-71
2022/09/16 00:23:49;;;;;;;8.25;7.07;;;14.60;83.90;;;13.28;100.00;95412.09;4960072;28;20027;-70
2022/09/16 00:26:14;;;;;;;9.02;6.90;;;14.70;83.70;;;13.30;100.00;95420.59;4981887;28;20071;-70
2022/09/16 00:28:40;;;;;;;8.63;7.03;;;14.70;83.70;;;13.33;100.00;95420.16;4995718;28;20060;-70
2022/09/16 00:31:06;;;;;;;7.63;6.45;;;14.70;83.60;;;13.35;100.00;95414.63;5042256;28;20033;-70
2022/09/16 00:33:32;;;;;;;8.98;7.10;;;14.70;83.70;;;13.40;100.00;95420.09;4993778;28;20184;-70
2022/09/16 00:36:10;;;;;;;9.75;7.18;;;14.80;83.70;;;13.43;100.00;95415.16;4980518;28;20719;-70
2022/09/16 00:38:36;;;;;;;14.05;7.43;;;14.80;83.50;;;13.40;100.00;95410.31;4988053;28;20033;-71
2022/09/16 00:41:01;;;;;;;9.75;7.53;;;14.80;83.50;;;13.42;100.00;95421.47;4980249;28;20034;-71
2022/09/16 00:43:27;;;;;;;8.13;7.32;;;14.80;83.50;;;13.40;100.00;95412.97;5007073;28;20225;-71
2022/09/16 00:46:01;;;;;;;10.98;6.80;;;14.70;83.40;;;13.40;100.00;95417.44;4949360;28;20039;-71
2022/09/16 00:48:28;;;;;;;8.63;7.00;;;14.70;83.40;;;13.39;100.00;95414.00;4977575;28;20042;-70
2022/09/16 00:50:58;;;;;;;9.52;7.13;;;14.70;83.40;;;13.39;100.00;95419.28;5008672;28;20432;-71
2022/09/16 00:53:27;;;;;;;7.18;6.47;;;14.70;83.40;;;13.38;100.00;95417.66;4978105;28;20394;-70
2022/09/16 00:55:53;;;;;;;8.85;7.15;;;14.70;83.60;;;13.38;100.00;95416.84;4968464;28;20110;-71
2022/09/16 00:58:43;;;;;;;8.45;6.90;;;14.70;83.60;;;13.40;100.00;95420.88;4958062;28;20082;-71
2022/09/16 01:01:09;;;;;;;9.30;6.82;;;14.80;83.60;;;13.41;100.00;95411.13;5007175;28;20084;-71
2022/09/16 01:03:47;;;;;;;7.95;7.15;;;14.80;83.60;;;13.42;100.00;95415.38;4983272;28;20024;-71
2022/09/16 01:06:13;;;;;;;9.90;7.38;;;14.80;83.40;;;13.40;100.00;95420.88;4972973;28;20073;-71
2022/09/16 01:08:42;;;;;;;8.32;7.53;;;14.80;83.60;;;13.42;100.00;95424.09;4936898;28;20055;-71
2022/09/16 01:11:08;;;;;;;8.85;7.25;;;14.70;83.60;;;13.43;100.00;95415.16;4978290;28;20054;-71
2022/09/16 01:13:34;;;;;;;9.52;7.15;;;14.70;83.60;;;13.42;100.00;95410.09;4982775;28;20025;-70
2022/09/16 01:16:04;;;;;;;9.13;7.57;;;14.70;83.60;;;13.44;100.00;95403.56;4986742;28;20027;-70
2022/09/16 01:18:33;;;;;;;;;;;14.80;83.80;;;13.44;100.00;95397.47;4992123;28;20036;-70
2022/09/16 01:21:19;;;;;;;10.25;7.07;;;14.80;83.70;;;13.44;100.00;95398.28;4993486;28;19914;-71
2022/09/16 01:24:10;;;;;;;9.60;7.55;;;14.80;83.50;;;13.44;100.00;95395.63;4977558;28;20490;-70
2022/09/16 01:27:06;;;;;;;9.07;8.18;;;14.80;83.60;;;13.45;100.00;95391.16;4957240;28;20043;-70
2022/09/16 01:29:47;;;;;;;9.68;7.57;;;14.80;83.50;;;13.43;100.00;95404.59;4983509;28;20025;-70
2022/09/16 01:32:39;;;;;;;10.07;8.02;;;14.80;83.60;;;13.43;100.00;95401.13;4985463;28;20041;-71
2022/09/16 01:35:20;;;;;;;9.65;7.78;;;14.80;83.40;;;13.41;100.00;95400.56;4987697;28;20117;-71
2022/09/16 01:38:10;;;;;;;10.43;7.55;;;14.70;83.60;;;13.42;100.00;95408.25;4964316;28;20058;-71
2022/09/16 01:41:21;;;;;;;9.75;7.80;;;14.80;83.60;;;13.42;100.00;95402.16;5017094;28;20052;-71
2022/09/16 01:44:00;;;;;;;8.93;7.75;;;14.70;83.70;;;13.38;100.00;95401.81;4974503;28;20097;-70
2022/09/16 01:46:59;;;;;;;8.95;7.75;;;14.70;83.70;;;13.38;100.00;95401.81;4978621;28;20463;-71
2022/09/16 01:49:52;;;;;;;9.23;7.60;;;14.80;83.80;;;13.39;100.00;95403.44;4959501;28;20035;-71
2022/09/16 01:52:40;;;;;;;8.80;7.78;;;14.70;83.80;;;13.39;100.00;95402.63;4950468;28;20506;-70
2022/09/16 01:55:09;;;;;;;10.82;8.25;;;14.70;83.90;;;13.38;100.00;95401.81;4952472;28;20115;-71
2022/09/16 01:57:57;;;;;;;9.52;7.90;;;14.70;83.90;;;13.39;100.00;95406.06;4958391;28;20042;-70
2022/09/16 02:00:23;;;;;;;9.30;7.50;;;14.70;84.10;;;13.39;100.00;95403.44;4965320;28;20042;-72
2022/09/16 02:03:02;;;;;;;8.75;7.82;;;14.80;84.00;;;13.44;100.00;95397.47;5011577;28;20028;-69
2022/09/16 02:05:52;;;;;;;8.85;7.65;;;14.80;84.00;;;13.43;100.00;95399.31;5049487;28;20564;-69
2022/09/16 02:08:52;;;;;;;13.40;9.15;;;14.80;83.70;;;13.43;100.00;95396.66;4967652;28;20070;-69
2022/09/16 02:11:18;;;;;;;9.80;8.02;;;14.80;83.90;;;13.42;100.00;95397.69;4989987;28;20051;-69
2022/09/16 02:14:01;;;;;;;11.15;7.85;;;14.80;84.00;;;13.44;100.00;95395.63;4964919;28;20106;-70
2022/09/16 02:16:39;;;;;;;9.77;7.82;;;14.80;83.80;;;13.43;100.00;95403.78;4962423;28;20078;-69
2022/09/16 02:19:09;;;;;;;10.05;8.63;;;14.80;84.00;;;13.41;100.00;95397.91;4951677;28;20038;-69
2022/09/16 02:21:35;;;;;;;10.57;8.37;;;14.70;84.10;;;13.37;100.00;95402.84;4980447;28;20035;-69
2022/09/16 02:24:04;;;;;;;10.00;8.10;;;14.60;84.40;;;13.37;100.00;95405.50;4996976;28;20115;-69
2022/09/16 02:26:35;;;;;;;15.00;9.70;;;14.60;84.40;;;13.39;100.00;95398.16;5024929;28;20037;-69
2022/09/16 02:29:00;;;;;;;;;;;14.70;84.40;;;13.36;100.00;95393.31;5026056;28;20031;-70
2022/09/16 02:31:32;;;;;;;10.40;8.95;;;14.70;84.30;;;13.37;100.00;95400.22;5034819;28;19922;-69
2022/09/16 02:34:19;;;;;;;11.15;8.48;;;14.70;84.30;;;13.36;100.00;95403.88;4976099;28;20041;-69
2022/09/16 02:36:48;;;;;;;9.52;8.57;;;14.60;84.30;;;13.35;100.00;95402.25;5011309;28;20033;-69
2022/09/16 02:39:16;;;;;;;9.80;8.82;;;14.70;84.30;;;13.35;100.00;95404.91;5029676;28;20060;-69
2022/09/16 02:41:42;;;;;;;10.40;8.95;;;14.70;84.50;;;13.36;100.00;95403.88;4989508;28;20043;-69
2022/09/16 02:44:08;;;;;;;11.50;8.57;;;14.70;84.40;;;13.37;100.00;95400.22;4967000;28;20165;-69
2022/09/16 02:46:47;;;;;;;11.05;9.57;;;14.60;84.30;;;13.37;100.00;95400.22;4946376;28;20383;-69
2022/09/16 02:49:43;;;;;;;11.95;10.68;;;14.60;84.80;;;13.38;100.00;95401.00;4942949;28;20142;-69
2022/09/16 02:52:49;;;;;;;9.95;8.48;;;14.60;84.70;;;13.37;100.00;95394.91;5042567;28;20151;-69
2022/09/16 02:55:39;;;;;;;10.07;8.23;;;14.70;84.80;;;13.39;100.00;95399.97;4960852;28;20195;-69
2022/09/16 02:58:05;;;;;;;10.37;7.67;;;14.70;84.80;;;13.38;100.00;95396.53;4966262;28;20050;-69
2022/09/16 03:00:36;;;;;;;9.57;8.52;;;14.70;84.70;;;13.39;100.00;95395.50;4933391;28;20031;-69
2022/09/16 03:03:02;;;;;;;14.27;11.25;;;14.70;84.80;;;13.39;100.00;95392.84;4935240;28;20061;-70
2022/09/16 03:05:28;;;;;;;10.40;9.30;;;14.70;84.90;;;13.40;100.00;95386.53;5012557;28;20548;-70
2022/09/16 03:07:54;;;;;;;10.43;8.15;;;14.80;84.60;;;13.42;100.00;95388.97;5012751;28;20027;-69
2022/09/16 03:10:19;;;;;;;9.50;8.32;;;14.70;84.70;;;13.43;100.00;95394.03;4956609;28;20493;-69
2022/09/16 03:13:11;;;;;;;14.80;13.30;;;14.70;84.50;;;13.46;100.00;95393.56;4934405;28;20566;-70
2022/09/16 03:15:58;;;;;;;15.65;13.98;;;14.80;84.60;;;13.49;100.00;95389.66;5026006;28;20047;-70
2022/09/16 03:18:44;;;;;;;12.52;9.85;;;14.80;84.70;;;13.51;100.00;95384.16;4980062;28;20510;-70
2022/09/16 03:21:20;;;;;;;13.35;8.82;;;14.90;84.60;;;13.51;100.00;95384.97;4953135;28;20121;-71
2022/09/16 03:24:30;;;;;;;11.35;8.57;;;14.90;84.40;;;13.54;100.00;95378.41;4985764;28;20107;-69
2022/09/16 03:27:04;;;;;;;22.40;17.00;;;14.90;84.10;;;13.53;100.00;95379.47;4988714;28;20033;-69
2022/09/16 03:29:55;;;;;;;17.05;13.38;;;14.90;84.50;;;13.56;100.00;95371.06;4988499;28;20033;-70
2022/09/16 03:32:53;;;;;;;14.18;9.90;;;14.90;84.10;;;13.56;100.00;95379.00;4970189;28;20108;-70
2022/09/16 03:35:30;;;;;;;14.00;10.57;;;14.90;83.60;;;13.55;100.00;95380.84;4996320;28;20045;-70
2022/09/16 03:37:57;;;;;;;11.20;9.23;;;14.90;83.60;;;13.51;100.00;95363.03;5008523;28;20122;-74
2022/09/16 03:40:23;;;;;;;11.13;8.93;;;15.00;83.70;;;13.57;100.00;95360.28;4985846;28;20031;-71
2022/09/16 03:42:49;;;;;;;13.75;9.48;;;15.00;83.70;;;13.59;100.00;95370.66;4975855;28;20063;-68
2022/09/16 03:45:17;;;;;;;12.48;9.30;;;14.90;83.50;;;13.58;100.00;95369.00;4966117;28;20125;-68
2022/09/16 03:47:44;;;;;;;11.57;8.80;;;15.00;83.70;;;13.58;100.00;95369.00;4948531;28;20030;-70
2022/09/16 03:50:09;;;;;;;11.57;9.07;;;15.00;83.60;;;13.60;100.00;95366.97;4967340;28;20034;-70
2022/09/16 03:52:35;;;;;;;11.77;9.00;;;15.00;83.50;;;13.59;100.00;95362.72;4988756;28;20036;-70
2022/09/16 03:55:01;;;;;;;9.70;8.52;;;14.90;83.30;;;13.58;100.00;95358.44;4972439;28;20035;-70
2022/09/16 03:57:29;;;;;;;12.32;9.57;;;15.00;83.00;;;13.57;100.00;95362.13;5002235;28;20038;-70
2022/09/16 03:59:54;;;;;;;10.63;9.30;;;14.90;83.00;;;13.55;100.00;95361.53;5019225;28;20047;-70
2022/09/16 04:02:20;;;;;;;11.65;9.18;;;14.80;83.10;;;13.54;100.00;95365.22;5026244;28;20028;-70
2022/09/16 04:04:46;;;;;;;10.93;9.32;;;14.80;82.80;;;13.51;100.00;95369.13;5031650;28;20057;-70
2022/09/16 04:07:11;;;;;;;11.73;10.02;;;14.90;82.70;;;13.46;100.00;95361.88;4967880;28;20659;-70
2022/09/16 04:09:37;;;;;;;11.40;9.13;;;14.70;82.70;;;13.45;100.00;95360.25;5015439;28;20480;-69
2022/09/16 04:12:04;;;;;;;11.38;9.90;;;14.80;82.60;;;13.44;100.00;95355.19;5025872;28;20463;-69
2022/09/16 04:14:30;;;;;;;10.52;9.43;;;14.80;82.60;;;13.42;100.00;95366.00;4965138;28;20119;-70
2022/09/16 04:16:55;;;;;;;11.48;9.20;;;14.80;82.50;;;13.41;100.00;95366.22;4979956;28;20053;-70
2022/09/16 04:19:21;;;;;;;11.23;9.60;;;14.70;82.30;;;13.39;100.00;95358.53;4967188;28;20502;-70
2022/09/16 04:21:47;;;;;;;12.52;9.70;;;14.80;82.40;;;13.34;100.00;95361.00;4969707;28;20053;-70
2022/09/16 04:24:12;;;;;;;11.68;10.32;;;14.60;82.30;;;13.35;100.00;95360.00;4980720;28;20471;-70
2022/09/16 04:26:38;;;;;;;11.63;10.43;;;14.60;82.60;;;13.31;100.00;95353.53;5013579;28;20513;-70
2022/09/16 04:29:04;;;;;;;11.30;10.02;;;14.60;82.40;;;13.30;100.00;95372.25;5031848;28;20038;-70
2022/09/16 04:31:30;;;;;;;12.65;10.77;;;14.60;82.80;;;13.27;100.00;95373.50;4965728;28;20049;-69
2022/09/16 04:33:56;;;;;;;29.50;25.73;;;14.50;82.90;;;13.26;100.00;95377.16;4975668;28;20054;-69
2022/09/16 04:36:21;;;;;;;19.52;16.55;;;14.60;83.20;;;13.28;100.00;95371.66;4966938;28;20096;-73
2022/09/16 04:38:47;;;;;;;18.33;16.40;;;14.60;83.40;;;13.28;100.00;95374.31;4965153;28;20054;-69
2022/09/16 04:41:21;;;;;;;14.38;11.27;;;14.70;82.80;;;13.29;100.00;95371.44;4977712;28;20031;-69
2022/09/16 04:43:51;;;;;;;13.57;10.70;;;14.60;82.70;;;13.28;100.00;95374.31;4951941;28;20061;-69
2022/09/16 04:46:18;;;;;;;12.23;10.43;;;14.60;82.80;;;13.29;100.00;95382.00;4993986;28;20038;-66
2022/09/16 04:48:47;;;;;;;13.43;10.15;;;14.60;82.50;;;13.29;100.00;95383.84;4952465;28;20286;-66
2022/09/16 04:51:13;;;;;;;12.60;9.98;;;14.60;82.10;;;13.28;100.00;95383.03;5033969;28;20077;-66
2022/09/16 04:53:39;;;;;;;13.48;9.88;;;14.60;82.50;;;13.30;100.00;95383.63;4990325;28;20509;-68
2022/09/16 04:56:07;;;;;;;12.82;9.43;;;14.60;82.20;;;13.31;100.00;95385.22;4990018;28;20039;-66
2022/09/16 04:58:33;;;;;;;11.50;9.23;;;14.60;81.90;;;13.33;100.00;95383.16;4966881;28;20086;-67
2022/09/16 05:01:11;;;;;;;11.23;9.70;;;14.70;82.20;;;13.33;100.00;95393.72;5026713;28;20027;-67
2022/09/16 05:03:40;;;;;;;12.48;9.80;;;14.60;81.80;;;13.34;100.00;95389.25;4979232;28;20029;-66
2022/09/16 05:06:11;;;;;;;11.15;9.35;;;14.60;81.90;;;13.34;100.00;95387.41;4973118;28;20042;-65
2022/09/16 05:08:37;;;;;;;12.25;9.55;;;14.60;82.30;;;13.33;100.00;95388.44;4961406;28;20204;-69
2022/09/16 05:11:11;;;;;;;11.88;9.57;;;14.60;82.00;;;13.33;100.00;95387.66;4943956;28;20034;-63
2022/09/16 05:13:37;;;;;;;13.73;9.52;;;14.60;82.00;;;13.34;100.00;95383.97;4957600;28;20127;-69
2022/09/16 05:16:08;;;;;;;12.77;9.40;;;14.70;82.20;;;13.37;100.00;95384.34;4931251;28;20031;-69
2022/09/16 05:18:35;;;;;;;10.43;8.77;;;14.80;82.30;;;13.39;100.00;95384.94;4962525;28;20053;-69
2022/09/16 05:21:02;;;;;;;11.88;9.68;;;14.80;82.20;;;13.41;100.00;95387.34;4937942;28;20173;-68
2022/09/16 05:23:27;;;;;;;11.63;8.95;;;14.70;82.00;;;13.42;100.00;95383.69;4945929;28;20439;-63
2022/09/16 05:25:53;;;;;;;10.05;8.95;;;14.70;82.10;;;13.43;100.00;95383.44;4965099;28;20188;-63
2022/09/16 05:28:20;;;;;;;11.23;8.93;;;14.90;81.50;;;13.47;100.00;95389.09;4982903;28;20114;-69
2022/09/16 05:30:45;;;;;;;12.95;11.65;;;14.80;81.60;;;13.47;100.00;95384.63;4931047;28;20081;-68
2022/09/16 05:33:11;;;;;;;29.00;25.85;;;14.80;81.30;;;13.49;100.00;95392.31;5029142;28;20035;-68
2022/09/16 05:35:37;;;;;;;17.52;15.70;;;14.90;81.30;;;13.53;100.00;95400.59;4996050;28;20045;-67
2022/09/16 05:38:03;;;;;;;12.00;9.82;;;14.90;81.20;;;13.53;100.00;95397.94;4999142;28;20086;-67
2022/09/16 05:40:28;;;;;;;12.18;9.20;;;14.90;81.00;;;13.53;100.00;95398.75;4947088;28;20054;-68
2022/09/16 05:42:54;;;;;;;17.85;9.02;;;15.00;81.10;;;13.55;100.00;95401.16;4961944;28;20058;-67
2022/09/16 05:45:20;;;;;;;11.93;8.77;;;14.90;81.10;;;13.57;100.00;95397.28;4943482;28;20058;-68
2022/09/16 05:47:49;;;;;;;11.43;8.90;;;15.00;81.10;;;13.58;100.00;95393.63;4961349;28;20035;-67
2022/09/16 05:50:15;;;;;;;7.80;7.03;;;15.00;81.00;;;13.58;100.00;95387.50;4962256;28;20046;-67
2022/09/16 05:52:41;;;;;;;9.80;8.50;;;15.00;80.40;;;13.59;100.00;95383.88;4984546;28;20435;-67
2022/09/16 05:55:07;;;;;;;12.30;8.57;;;15.00;80.60;;;13.62;100.00;95378.13;4975147;28;20079;-67
2022/09/16 05:57:33;;;;;;;12.20;8.73;;;15.10;80.70;;;13.63;100.00;95390.31;4964107;28;20118;-68
2022/09/16 05:59:58;;;;;;;10.52;9.18;;;15.10;80.80;;;13.64;100.00;95378.69;4947501;28;20047;-68
2022/09/16 06:02:24;;;;;;;10.07;9.07;;;15.10;80.40;;;13.64;100.00;95382.16;4978837;28;20556;-67
2022/09/16 06:04:50;;;;;;;12.27;9.10;;;15.10;80.40;;;13.65;100.00;95385.59;4967421;28;20063;-65
2022/09/16 06:07:16;;;;;;;11.95;9.40;;;15.10;80.70;;;13.68;100.00;95395.72;4970928;28;20039;-67
2022/09/16 06:09:42;;;;;;;14.18;9.45;;;15.10;80.90;;;13.70;100.00;95393.66;4966009;28;20336;-69
2022/09/16 06:12:08;;;;;;;11.05;9.65;;;15.20;80.80;;;13.70;100.00;95388.38;4977382;28;20149;-66
2022/09/16 06:14:34;;;;;;;11.07;9.27;;;15.20;80.70;;;13.72;100.00;95392.38;4984542;28;20122;-66
2022/09/16 06:17:00;;;;;;;13.05;9.02;;;15.10;80.50;;;13.74;100.00;95394.81;4951932;28;20061;-65
2022/09/16 06:19:26;;;;;;;11.30;9.05;;;15.20;80.30;;;13.75;100.00;95384.00;4965200;28;20088;-65
2022/09/16 06:21:52;;;;;;;10.95;9.20;;;15.20;80.10;;;13.76;100.00;95379.53;4970239;28;20031;-62
2022/09/16 06:24:18;;;;;;;11.40;9.05;;;15.20;80.30;;;13.80;100.00;95388.59;4983402;28;20562;-64
2022/09/16 06:26:44;;;;;;;11.55;8.77;;;15.40;80.30;;;13.85;100.00;95380.03;4959820;28;20041;-63
2022/09/16 06:29:11;;;;;;;13.10;8.70;;;15.30;79.90;;;13.86;100.00;95377.16;4995938;28;20042;-67
2022/09/16 06:31:37;;;;;;;10.27;8.85;;;15.40;80.00;;;13.88;100.00;95383.00;4997353;28;20038;-69
2022/09/16 06:34:03;;;;;;;11.35;9.50;;;15.40;80.20;;;13.91;100.00;95379.09;4965913;28;20516;-63
2022/09/16 06:36:34;;;;;;;10.15;9.05;;;15.40;80.20;;;13.94;100.00;95379.47;4981198;28;20066;-64
2022/09/16 06:39:00;;;;;;;11.05;8.82;;;15.40;80.10;;;13.95;100.00;95378.41;4969377;28;20494;-64
2022/09/16 06:41:25;;;;;;;15.55;9.75;;;15.40;79.70;;;13.98;100.00;95382.44;4999610;28;20109;-67
2022/09/16 06:43:51;;;;;;;17.60;12.82;;;15.40;80.20;;;13.99;100.00;95376.94;5012687;28;20062;-65
2022/09/16 06:46:20;;;;;;;14.80;11.80;;;15.50;79.50;;;14.00;100.00;95377.72;4974395;28;20023;-67
2022/09/16 06:48:51;;;;;;;12.90;10.35;;;15.50;79.30;;;14.00;100.00;95380.38;4998629;28;20038;-64
2022/09/16 06:51:21;;;;;;;;;;;15.50;79.70;;;14.01;100.00;95380.16;4972680;28;20064;-66
2022/09/16 06:53:47;;;;;;;12.07;9.00;;;15.60;79.60;;;14.03;100.00;95382.56;4965511;28;20051;-66
2022/09/16 06:56:15;;;;;;;11.50;8.48;;;15.50;79.70;;;14.05;100.00;95373.41;5016143;28;20519;-67
2022/09/16 06:58:42;;;;;;;13.80;9.18;;;15.60;79.60;;;14.07;100.00;95367.88;4966111;28;20038;-68
2022/09/16 07:01:17;;;;;;;10.30;9.10;;;15.60;79.10;;;14.10;100.00;95367.41;4967344;28;20042;-69
2022/09/16 07:03:47;;;;;;;10.10;8.68;;;15.60;78.90;;;14.15;100.00;95369.38;4949382;28;20129;-70
2022/09/16 07:06:13;;;;;;;10.95;9.20;;;15.70;79.10;;;14.17;100.00;95369.94;4971263;28;20501;-69
2022/09/16 07:08:39;;;;;;;10.77;8.23;;;15.80;79.10;;;14.18;100.00;95372.34;4981864;28;20797;-68
2022/09/16 07:11:16;;;;;;;17.05;9.68;;;15.80;78.40;;;14.22;100.00;95370.06;4966829;28;20109;-68
2022/09/16 07:13:42;;;;;;;11.20;8.63;;;15.70;78.50;;;14.24;100.00;95370.63;4973363;28;20037;-68
2022/09/16 07:16:13;;;;;;;10.00;8.40;;;15.90;78.70;;;14.28;100.00;95369.97;4948706;28;20858;-68
2022/09/16 07:18:40;;;;;;;12.52;8.40;;;15.80;78.30;;;14.29;100.00;95361.00;4960664;28;20042;-68
2022/09/16 07:21:28;;;;;;;11.77;8.63;;;15.90;78.20;;;14.34;100.00;95362.94;4949558;28;20069;-68
2022/09/16 07:23:58;;;;;;;10.35;8.80;;;15.90;77.80;;;14.36;100.00;95366.16;4964918;28;20058;-68
2022/09/16 07:26:27;;;;;;;12.57;9.70;;;16.00;78.00;;;14.39;100.00;95355.91;4949724;28;20035;-68
2022/09/16 07:28:53;;;;;;;15.10;9.40;;;16.00;78.20;;;14.41;100.00;95356.50;5017974;28;20024;-66
2022/09/16 07:31:25;;;;;;;9.98;8.77;;;16.00;77.50;;;14.46;100.00;95355.03;4962440;28;20431;-70
2022/09/16 07:33:51;;;;;;;14.07;9.07;;;16.10;77.70;;;14.51;100.00;95371.84;4974298;28;20406;-68
2022/09/16 07:36:25;;;;;;;9.63;8.55;;;16.20;77.20;;;14.58;100.00;95359.28;4957075;28;20609;-67
2022/09/16 07:38:51;;;;;;;10.48;8.95;;;16.30;76.90;;;14.63;100.00;95367.31;4964024;28;20123;-66
2022/09/16 07:41:22;;;;;;;12.27;8.73;;;16.40;76.30;;;14.69;100.00;95361.09;4971759;28;20514;-66
2022/09/16 07:43:48;;;;;;;12.05;9.10;;;16.40;76.60;;;14.75;100.00;95363.88;4947428;28;20026;-66
2022/09/16 07:46:15;;;;;;;13.35;9.02;;;16.50;75.70;;;14.80;100.00;95362.13;4978767;28;20056;-63
2022/09/16 07:48:41;;;;;;;10.57;8.52;;;16.60;75.90;;;14.86;100.00;95366.47;4965573;28;20042;-67
2022/09/16 07:51:09;;;;;;;12.45;8.95;;;16.60;75.70;;;14.90;100.00;95374.75;4976821;28;20069;-62
2022/09/16 07:53:35;;;;;;;13.23;9.13;;;16.60;76.00;;;14.95;100.00;95362.44;4978302;28;20039;-67
2022/09/16 07:56:11;;;;;;;13.10;9.38;;;16.60;75.60;;;15.01;100.00;95373.94;4932888;28;20057;-65
2022/09/16 07:58:38;;;;;;;10.00;8.90;;;16.70;75.80;;;15.02;100.00;95359.66;4966142;28;20042;-67
2022/09/16 08:01:05;;;;;;;10.52;9.07;;;16.60;75.00;;;15.02;100.00;95372.91;4988573;28;20123;-65
2022/09/16 08:03:34;;;;;;;13.00;9.10;;;16.60;75.60;;;15.05;100.00;95364.50;4971098;28;20081;-65
2022/09/16 08:06:02;;;;;;;12.98;9.18;;;16.70;75.70;;;15.11;100.00;95363.53;4983111;28;20050;-67
2022/09/16 08:08:28;;;;;;;10.43;9.10;;;16.80;75.20;;;15.16;100.00;95358.38;4973550;28;20049;-68
2022/09/16 08:10:55;;;;;;;12.00;8.07;;;16.80;75.00;;;15.20;100.00;95362.16;4958401;28;20038;-65
2022/09/16 08:13:20;;;;;;;9.95;8.32;;;16.90;74.80;;;15.28;100.00;95369.72;4965252;28;20045;-66
2022/09/16 08:15:46;;;;;;;12.27;8.57;;;17.10;74.70;;;15.40;100.00;95379.47;4958613;28;20497;-66
2022/09/16 08:18:12;;;;;;;12.02;9.10;;;17.20;74.40;;;15.45;100.00;95385.69;4974133;28;20054;-64
2022/09/16 08:20:38;;;;;;;10.65;8.73;;;17.20;74.40;;;15.48;100.00;95379.91;4956125;28;20031;-65
2022/09/16 08:23:03;;;;;;;12.68;8.95;;;17.20;74.40;;;15.53;100.00;95382.63;4964507;28;20118;-66
2022/09/16 08:25:29;;;;;;;11.93;9.55;;;17.30;73.90;;;15.56;100.00;95382.16;4978214;28;20072;-66
2022/09/16 08:27:55;;;;;;;14.35;9.32;;;17.30;73.40;;;15.63;100.00;95387.38;4965848;28;20066;-66
2022/09/16 08:30:20;;;;;;;14.02;9.02;;;17.40;73.30;;;15.66;100.00;95389.53;4964128;28;20478;-66
2022/09/16 08:32:47;;;;;;;10.43;8.98;;;17.30;72.80;;;15.71;100.00;95379.00;4945964;28;20581;-67
2022/09/16 08:35:13;;;;;;;9.77;8.77;;;17.50;72.50;;;15.77;100.00;95367.44;5008848;28;20065;-67
2022/09/16 08:37:40;;;;;;;11.20;8.98;;;17.60;72.60;;;15.86;100.00;95376.63;4968265;28;20030;-64
2022/09/16 08:40:06;;;;;;;13.70;9.20;;;17.60;72.80;;;15.89;100.00;95376.16;4975067;28;20042;-68
2022/09/16 08:43:20;;;;;;;10.70;9.02;;;17.60;72.50;;;15.89;100.00;95376.16;4954887;28;20474;-67
2022/09/16 08:46:08;;;;;;;11.02;9.40;;;17.50;71.90;;;15.88;100.00;95384.34;4957713;28;20162;-66
2022/09/16 08:49:12;;;;;;;11.02;8.80;;;17.50;72.60;;;15.88;100.00;95374.56;4968176;28;20027;-67
2022/09/16 08:51:38;;;;;;;14.95;9.90;;;17.50;72.50;;;15.86;100.00;95381.13;4967548;28;20035;-65
2022/09/16 08:54:09;;;;;;;9.90;8.90;;;17.50;72.60;;;15.86;100.00;95381.94;4953919;28;20041;-68
2022/09/16 08:56:35;;;;;;;10.13;8.90;;;17.50;72.30;;;15.85;100.00;95375.03;4956636;28;20124;-66
2022/09/16 08:59:01;;;;;;;11.48;9.40;;;17.40;72.50;;;15.85;100.00;95375.03;4949625;28;20078;-67
2022/09/16 09:01:34;;;;;;;11.13;9.27;;;17.40;72.20;;;15.84;100.00;95373.44;4931766;28;20031;-63
2022/09/16 09:04:00;;;;;;;12.10;9.05;;;17.50;72.40;;;15.81;100.00;95373.88;4967538;28;20474;-65
2022/09/16 09:06:53;;;;;;;10.48;9.15;;;17.40;72.40;;;15.82;100.00;95385.28;4960959;28;20731;-66
2022/09/16 09:09:36;;;;;;;11.20;8.68;;;17.30;72.20;;;15.79;100.00;95381.28;4986625;28;20413;-62
2022/09/16 09:12:35;;;;;;;12.48;9.30;;;17.30;72.50;;;15.79;100.00;95378.63;4961001;28;20099;-63
2022/09/16 09:15:31;;;;;;;13.65;9.48;;;17.30;72.30;;;15.78;100.00;95386.81;4951637;28;20141;-67
2022/09/16 09:18:06;;;;;;;10.75;9.15;;;17.30;72.60;;;15.74;100.00;95378.53;4963378;28;20042;-68
2022/09/16 09:20:56;;;;;;;13.43;9.80;;;17.30;73.10;;;15.69;100.00;95386.41;5004824;28;20096;-69
2022/09/16 09:23:35;;;;;;;12.02;10.10;;;17.10;73.10;;;15.62;100.00;95383.09;5045502;28;20073;-69
2022/09/16 09:26:17;;;;;;;11.38;9.30;;;17.00;73.30;;;15.55;100.00;95385.03;4972485;28;20583;-69
2022/09/16 09:29:13;;;;;;;10.63;9.30;;;17.00;74.00;;;15.47;100.00;95382.78;4970479;28;20035;-67
2022/09/16 09:31:55;;;;;;;11.32;8.43;;;16.90;74.30;;;15.37;100.00;95382.56;4945745;28;20043;-70
2022/09/16 09:34:48;;;;;;;10.10;7.75;;;16.80;74.20;;;15.29;100.00;95376.63;5015760;28;20050;-68
2022/09/16 09:37:26;;;;;;;12.40;8.73;;;16.70;74.00;;;15.23;100.00;95366.97;4962986;28;20118;-68
2022/09/16 09:40:16;;;;;;;13.18;9.52;;;16.70;75.10;;;15.21;100.00;95362.94;5065520;28;20471;-65
2022/09/16 09:43:06;;;;;;;11.93;9.18;;;16.70;75.90;;;15.21;100.00;95357.66;4973231;28;20027;-68
2022/09/16 09:45:55;;;;;;;10.60;9.02;;;16.70;76.20;;;15.19;100.00;95371.13;4956136;28;20069;-66
2022/09/16 09:48:29;;;;;;;13.98;9.50;;;16.70;76.50;;;15.14;100.00;95371.00;4951730;28;20702;-67
2022/09/16 09:50:57;;;;;;;11.30;9.15;;;16.60;76.50;;;15.09;100.00;95370.91;4999293;28;20033;-66
2022/09/16 09:53:51;;;;;;;15.35;9.88;;;16.60;76.70;;;15.05;100.00;95364.50;4969638;28;20051;-66
2022/09/16 09:56:25;;;;;;;13.63;8.98;;;16.50;76.60;;;14.98;100.00;95380.53;4953008;28;20065;-68
2022/09/16 09:59:23;;;;;;;9.32;7.10;;;16.40;77.10;;;14.91;100.00;95381.66;4966437;28;20073;-67
2022/09/16 10:01:54;;;;;;;7.20;4.78;;;16.20;75.50;;;14.75;100.00;95379.75;4969557;28;20168;-66
2022/09/16 10:04:19;;;;;;;7.03;4.65;;;16.00;74.30;;;14.66;100.00;95381.94;4934863;28;20122;-66
2022/09/16 10:06:45;;;;;;;5.35;3.80;;;16.00;74.10;;;14.60;100.00;95382.88;4951842;28;20035;-67
2022/09/16 10:09:14;;;;;;;6.65;3.63;;;16.00;74.10;;;14.56;100.00;95377.22;4933119;28;20066;-67
2022/09/16 10:11:53;;;;;;;5.15;4.07;;;16.10;73.80;;;14.51;100.00;95369.19;4950797;28;20035;-66
2022/09/16 10:14:36;;;;;;;6.18;4.35;;;16.00;74.10;;;14.50;100.00;95372.88;4953697;28;20035;-65
2022/09/16 10:17:05;;;;;;;8.82;4.55;;;16.00;74.70;;;14.49;100.00;95362.53;4935982;28;20043;-64
2022/09/16 10:19:34;;;;;;;6.45;4.18;;;16.10;75.20;;;14.54;100.00;95367.91;4965928;28;20064;-68
2022/09/16 10:22:18;;;;;;;7.43;4.80;;;16.20;75.20;;;14.57;100.00;95367.44;4956913;28;20039;-69
2022/09/16 10:24:53;;;;;;;5.47;4.22;;;16.20;76.00;;;14.59;100.00;95368.81;4936377;28;20027;-63
2022/09/16 10:27:28;;;;;;;10.77;4.95;;;16.30;76.10;;;14.64;100.00;95362.84;5047931;28;20046;-65
2022/09/16 10:30:17;;;;;;;8.93;5.70;;;16.20;75.10;;;14.65;100.00;95365.25;5010163;28;20039;-64